createdAt,value
2019-06-10T00:01:06.964Z,1.67
2019-06-10T00:03:32.700Z,1.50
2019-06-10T00:06:01.881Z,1.63
2019-06-10T00:08:27.711Z,1.83
2019-06-10T00:10:53.902Z,1.50
2019-06-10T00:13:20.962Z,1.40
2019-06-10T00:15:47.597Z,1.80
2019-06-10T00:18:34.119Z,1.70
2019-06-10T00:20:41.930Z,1.87
2019-06-10T00:23:08.474Z,1.83
2019-06-10T00:25:34.860Z,1.90
2019-06-10T00:28:03.015Z,2.20
2019-06-10T00:30:31.193Z,1.87
2019-06-10T00:32:58.578Z,2.30
2019-06-10T00:35:25.062Z,2.17
2019-06-10T00:37:51.347Z,1.80
2019-06-10T00:40:17.962Z,1.80
2019-06-10T00:42:44.268Z,2.47
2019-06-10T00:45:17.492Z,2.13
2019-06-10T00:47:41.297Z,2.10
2019-06-10T00:50:13.101Z,2.00
2019-06-10T00:52:36.933Z,2.23
2019-06-10T00:55:07.740Z,2.20
2019-06-10T00:57:35.010Z,2.20
2019-06-10T01:00:12.601Z,2.00
2019-06-10T01:02:31.871Z,1.93
2019-06-10T01:05:00.647Z,1.83
2019-06-10T01:07:26.373Z,1.97
2019-06-10T01:09:52.708Z,1.77
2019-06-10T01:12:21.142Z,2.33
2019-06-10T01:14:47.345Z,1.93
2019-06-10T01:17:15.252Z,2.00
2019-06-10T01:19:42.289Z,2.07
2019-06-10T01:24:57.666Z,2.20
2019-06-10T01:27:24.198Z,1.77
2019-06-10T01:29:51.085Z,2.30
2019-06-10T01:32:17.735Z,2.20
2019-06-10T01:34:44.138Z,2.00
2019-06-10T01:37:11.799Z,2.20
2019-06-10T01:39:38.545Z,2.40
2019-06-10T01:42:04.745Z,2.60
2019-06-10T01:44:31.151Z,1.83
2019-06-10T01:46:57.625Z,1.90
2019-06-10T01:49:24.134Z,2.10
2019-06-10T01:51:51.574Z,2.17
2019-06-10T01:54:18.449Z,2.10
2019-06-10T01:56:45.105Z,2.27
2019-06-10T01:59:13.723Z,2.40
2019-06-10T02:01:41.433Z,2.27
2019-06-10T02:04:08.292Z,2.47
2019-06-10T02:06:34.883Z,2.50
2019-06-10T02:09:08.875Z,2.70
2019-06-10T02:11:35.801Z,2.30
2019-06-10T02:14:04.005Z,2.70
2019-06-10T02:16:32.523Z,2.37
2019-06-10T02:19:01.435Z,2.20
2019-06-10T02:21:27.129Z,2.47
2019-06-10T02:23:53.738Z,1.90
2019-06-10T02:26:22.307Z,2.10
2019-06-10T02:28:48.361Z,2.30
2019-06-10T02:31:19.096Z,2.27
2019-06-10T02:33:43.185Z,2.03
2019-06-10T02:36:09.506Z,2.40
2019-06-10T02:38:39.544Z,2.10
2019-06-10T02:41:04.981Z,2.30
2019-06-10T02:43:36.237Z,2.27
2019-06-10T02:46:00.029Z,2.03
2019-06-10T02:48:30.404Z,2.13
2019-06-10T02:51:03.995Z,2.00
2019-06-10T02:53:35.346Z,2.10
2019-06-10T02:55:58.942Z,2.20
2019-06-10T02:58:33.251Z,2.40
2019-06-10T03:00:54.679Z,2.23
2019-06-10T03:03:33.296Z,2.27
2019-06-10T03:05:53.317Z,2.10
2019-06-10T03:08:19.040Z,2.30
2019-06-10T03:10:46.372Z,2.47
2019-06-10T03:13:13.004Z,2.60
2019-06-10T03:15:47.290Z,2.60
2019-06-10T03:18:13.595Z,2.63
2019-06-10T03:20:39.778Z,3.23
2019-06-10T03:23:05.962Z,3.20
2019-06-10T03:25:32.803Z,3.87
2019-06-10T03:27:59.054Z,3.30
2019-06-10T03:30:37.351Z,3.00
2019-06-10T03:32:55.557Z,3.80
2019-06-10T03:35:23.836Z,3.50
2019-06-10T03:37:49.550Z,3.60
2019-06-10T03:40:16.492Z,2.80
2019-06-10T03:42:43.617Z,2.93
2019-06-10T03:45:12.703Z,3.03
2019-06-10T03:47:38.704Z,3.00
2019-06-10T03:50:08.504Z,2.73
2019-06-10T03:52:34.816Z,3.37
2019-06-10T03:55:03.092Z,2.80
2019-06-10T03:57:29.216Z,3.40
2019-06-10T03:59:55.503Z,2.60
2019-06-10T04:02:23.870Z,2.73
2019-06-10T04:04:52.231Z,2.53
2019-06-10T04:07:38.226Z,3.10
2019-06-10T04:10:05.205Z,2.93
2019-06-10T04:12:32.748Z,2.83
2019-06-10T04:14:59.157Z,2.93
2019-06-10T04:17:25.750Z,2.80
2019-06-10T04:20:07.838Z,2.73
2019-06-10T04:22:23.546Z,2.43
2019-06-10T04:24:51.948Z,3.00
2019-06-10T04:27:17.881Z,2.97
2019-06-10T04:29:44.085Z,2.83
2019-06-10T04:32:12.241Z,3.20
2019-06-10T04:34:38.953Z,3.07
2019-06-10T04:37:05.184Z,2.70
2019-06-10T04:39:33.736Z,3.30
2019-06-10T04:41:59.549Z,3.13
2019-06-10T04:44:26.636Z,3.10
2019-06-10T04:46:54.393Z,2.43
2019-06-10T04:49:23.406Z,2.60
2019-06-10T04:51:48.901Z,2.87
2019-06-10T04:54:15.421Z,2.70
2019-06-10T04:56:42.854Z,2.33
2019-06-10T04:59:09.352Z,3.03
2019-06-10T05:01:35.564Z,2.93
2019-06-10T05:04:03.134Z,2.80
2019-06-10T05:06:29.830Z,2.70
2019-06-10T05:08:56.478Z,2.73
2019-06-10T05:11:24.296Z,2.43
2019-06-10T05:13:53.080Z,3.20
2019-06-10T05:16:19.587Z,2.93
2019-06-10T05:18:46.029Z,2.90
2019-06-10T05:21:13.170Z,2.80
2019-06-10T05:23:39.745Z,2.57
2019-06-10T05:26:06.050Z,2.60
2019-06-10T05:28:34.213Z,2.70
2019-06-10T05:31:02.511Z,2.80
2019-06-10T05:33:28.921Z,3.57
2019-06-10T05:35:55.441Z,3.10
2019-06-10T05:38:24.007Z,3.20
2019-06-10T05:40:52.134Z,3.70
2019-06-10T05:43:18.935Z,3.50
2019-06-10T05:45:45.465Z,3.20
2019-06-10T05:48:16.267Z,2.90
2019-06-10T05:50:40.073Z,3.60
2019-06-10T05:53:06.718Z,4.20
2019-06-10T05:55:35.089Z,3.40
2019-06-10T05:58:02.634Z,3.20
2019-06-10T06:00:29.576Z,3.50
2019-06-10T06:02:56.007Z,3.50
2019-06-10T06:05:22.287Z,2.90
2019-06-10T06:08:01.401Z,3.33
2019-06-10T06:10:16.817Z,3.20
2019-06-10T06:12:43.035Z,3.53
2019-06-10T06:15:09.569Z,2.90
2019-06-10T06:17:36.079Z,3.50
2019-06-10T06:20:05.573Z,3.07
2019-06-10T06:22:33.701Z,3.60
2019-06-10T06:24:59.889Z,3.93
2019-06-10T06:27:26.727Z,3.67
2019-06-10T06:29:53.045Z,3.70
2019-06-10T06:32:19.569Z,3.97
2019-06-10T06:34:45.756Z,3.73
2019-06-10T06:37:12.762Z,3.53
2019-06-10T06:39:39.234Z,3.77
2019-06-10T06:42:05.656Z,3.00
2019-06-10T06:44:33.043Z,3.60
2019-06-10T06:47:02.533Z,3.57
2019-06-10T06:49:28.364Z,3.10
2019-06-10T06:51:58.962Z,3.57
2019-06-10T06:54:23.050Z,3.30
2019-06-10T06:56:50.040Z,3.60
2019-06-10T06:59:16.313Z,2.80
2019-06-10T07:01:44.167Z,3.30
2019-06-10T07:04:13.035Z,3.40
2019-06-10T07:06:40.434Z,3.10
2019-06-10T07:09:08.280Z,2.77
2019-06-10T07:11:38.528Z,3.13
2019-06-10T07:14:05.318Z,3.17
2019-06-10T07:16:34.464Z,3.23
2019-06-10T07:19:02.481Z,3.10
2019-06-10T07:21:28.717Z,3.03
2019-06-10T07:23:55.229Z,3.50
2019-06-10T07:26:22.285Z,3.00
2019-06-10T07:28:48.770Z,2.50
2019-06-10T07:31:23.233Z,2.70
2019-06-10T07:33:46.965Z,3.30
2019-06-10T07:36:13.139Z,3.33
2019-06-10T07:38:41.838Z,2.70
2019-06-10T07:41:08.164Z,3.30
2019-06-10T07:43:38.214Z,3.20
2019-06-10T07:46:03.614Z,3.03
2019-06-10T07:48:32.988Z,2.70
2019-06-10T07:50:58.944Z,2.83
2019-06-10T07:53:25.657Z,3.10
2019-06-10T07:55:53.553Z,3.20
2019-06-10T07:58:22.306Z,3.17
2019-06-10T08:00:48.716Z,2.70
2019-06-10T08:03:15.160Z,2.77
2019-06-10T08:05:44.475Z,2.90
2019-06-10T08:08:09.561Z,2.70
2019-06-10T08:10:37.032Z,2.33
2019-06-10T08:13:03.558Z,2.27
2019-06-10T08:15:32.351Z,2.10
2019-06-10T08:17:57.869Z,2.13
2019-06-10T08:20:45.035Z,2.63
2019-06-10T08:23:13.327Z,2.33
2019-06-10T08:25:40.426Z,2.40
2019-06-10T08:28:06.785Z,2.97
2019-06-10T08:30:33.461Z,2.20
2019-06-10T08:32:59.642Z,2.13
2019-06-10T08:35:38.341Z,2.40
2019-06-10T08:37:54.520Z,2.20
2019-06-10T08:40:22.850Z,2.60
2019-06-10T08:42:48.965Z,1.83
2019-06-10T08:45:15.393Z,2.10
2019-06-10T08:47:44.336Z,2.47
2019-06-10T08:50:10.030Z,2.20
2019-06-10T08:52:51.645Z,2.60
2019-06-10T08:55:05.182Z,2.17
2019-06-10T08:57:33.371Z,2.40
2019-06-10T08:59:59.473Z,2.37
2019-06-10T09:02:25.945Z,2.50
2019-06-10T09:04:53.590Z,2.30
2019-06-10T09:07:23.248Z,2.33
2019-06-10T09:09:50.307Z,2.40
2019-06-10T09:12:28.685Z,1.97
2019-06-10T09:14:46.838Z,1.93
2019-06-10T09:17:13.341Z,1.80
2019-06-10T09:19:41.358Z,2.27
2019-06-10T09:22:08.048Z,1.90
2019-06-10T09:24:34.537Z,1.67
2019-06-10T09:27:02.893Z,2.60
2019-06-10T09:29:28.969Z,2.03
2019-06-10T09:31:55.871Z,1.83
2019-06-10T09:34:23.806Z,2.00
2019-06-10T09:36:56.394Z,2.13
2019-06-10T09:39:18.554Z,2.40
2019-06-10T09:41:53.697Z,2.10
2019-06-10T09:44:13.134Z,2.37
2019-06-10T09:46:41.904Z,2.20
2019-06-10T09:49:09.293Z,2.70
2019-06-10T09:51:35.512Z,2.17
2019-06-10T09:54:06.350Z,2.37
2019-06-10T09:56:30.017Z,1.90
2019-06-10T09:58:56.402Z,2.20
2019-06-10T10:01:24.558Z,1.83
2019-06-10T10:03:59.101Z,1.87
2019-06-10T10:06:19.039Z,2.30
2019-06-10T10:08:49.303Z,2.00
2019-06-10T10:11:13.371Z,2.10
2019-06-10T10:13:44.126Z,2.37
2019-06-10T10:16:10.204Z,2.10
2019-06-10T10:18:36.860Z,2.20
2019-06-10T10:21:03.899Z,1.93
2019-06-10T10:23:48.456Z,1.93
2019-06-10T10:25:58.598Z,2.27
2019-06-10T10:28:26.309Z,1.80
2019-06-10T10:30:57.390Z,1.90
2019-06-10T10:33:24.367Z,1.73
2019-06-10T10:35:50.637Z,2.17
2019-06-10T10:38:17.013Z,2.03
2019-06-10T10:40:45.729Z,2.30
2019-06-10T10:43:25.265Z,2.60
2019-06-10T10:45:42.641Z,2.30
2019-06-10T10:48:08.110Z,2.40
2019-06-10T10:50:34.838Z,2.20
2019-06-10T10:53:01.159Z,2.23
2019-06-10T10:55:27.355Z,2.50
2019-06-10T10:57:55.746Z,2.73
2019-06-10T11:00:23.089Z,2.37
2019-06-10T11:02:51.459Z,2.90
2019-06-10T11:05:35.230Z,2.93
2019-06-10T11:08:04.173Z,2.27
2019-06-10T11:10:33.032Z,2.63
2019-06-10T11:13:02.343Z,2.40
2019-06-10T11:15:29.023Z,2.70
2019-06-10T11:17:56.557Z,2.93
2019-06-10T11:20:23.750Z,2.40
2019-06-10T11:22:50.057Z,2.80
2019-06-10T11:25:16.734Z,2.57
2019-06-10T11:27:43.285Z,2.97
2019-06-10T11:30:12.284Z,2.77
2019-06-10T11:32:38.185Z,2.97
2019-06-10T11:35:04.574Z,2.90
2019-06-10T11:37:31.131Z,2.50
2019-06-10T11:39:57.361Z,3.10
2019-06-10T11:42:23.569Z,2.20
2019-06-10T11:44:51.332Z,2.50
2019-06-10T11:47:18.394Z,2.10
2019-06-10T11:49:44.833Z,2.40
2019-06-10T11:52:12.624Z,2.20
2019-06-10T11:54:51.673Z,2.43
2019-06-10T11:57:07.262Z,2.20
2019-06-10T11:59:33.455Z,2.20
2019-06-10T12:02:02.078Z,2.57
2019-06-10T12:04:27.812Z,2.37
2019-06-10T12:06:54.831Z,2.40
2019-06-10T12:09:22.955Z,2.50
2019-06-10T12:11:50.668Z,2.57
2019-06-10T12:14:17.810Z,2.23
2019-06-10T12:17:17.750Z,2.53
2019-06-10T12:19:12.877Z,2.60
2019-06-10T12:21:39.229Z,2.10
2019-06-10T12:24:05.414Z,2.37
2019-06-10T12:26:33.367Z,2.23
2019-06-10T12:29:01.744Z,2.50
2019-06-10T12:31:28.176Z,2.20
2019-06-10T12:33:57.186Z,2.07
2019-06-10T12:36:23.748Z,1.87
2019-06-10T12:38:53.372Z,2.00
2019-06-10T12:41:18.595Z,2.07
2019-06-10T12:43:44.821Z,2.20
2019-06-10T12:46:12.771Z,2.20
2019-06-10T12:48:42.385Z,2.17
2019-06-10T12:51:27.590Z,2.10
2019-06-10T12:53:55.228Z,2.30
2019-06-10T12:56:22.804Z,1.70
2019-06-10T12:58:49.265Z,2.20
2019-06-10T13:01:15.822Z,2.60
2019-06-10T13:03:43.743Z,1.90
2019-06-10T13:06:12.856Z,2.17
2019-06-10T13:08:42.802Z,1.90
2019-06-10T13:11:08.611Z,1.80
2019-06-10T13:13:35.161Z,1.80
2019-06-10T13:16:06.694Z,1.87
2019-06-10T13:18:29.957Z,1.80
2019-06-10T13:20:58.282Z,1.97
2019-06-10T13:23:31.605Z,2.27
2019-06-10T13:25:57.957Z,2.00
2019-06-10T13:28:22.291Z,1.80
2019-06-10T13:30:48.757Z,2.00
2019-06-10T13:33:14.948Z,2.17
2019-06-10T13:35:43.634Z,2.20
2019-06-10T13:38:10.219Z,2.00
2019-06-10T13:40:36.601Z,2.10
2019-06-10T13:43:03.925Z,2.03
2019-06-10T13:45:33.074Z,1.90
2019-06-10T13:48:00.362Z,2.23
2019-06-10T13:50:27.089Z,2.30
2019-06-10T13:52:53.668Z,2.23
2019-06-10T13:55:22.344Z,2.07
2019-06-10T13:57:48.696Z,1.87
2019-06-10T14:00:16.452Z,1.80
2019-06-10T14:02:43.230Z,2.27
2019-06-10T14:05:16.301Z,2.13
2019-06-10T14:07:38.917Z,1.87
2019-06-10T14:10:10.821Z,2.17
2019-06-10T14:12:34.424Z,1.87
2019-06-10T14:15:04.147Z,2.37
2019-06-10T14:17:28.958Z,1.90
2019-06-10T14:19:55.163Z,1.97
2019-06-10T14:22:22.999Z,2.03
2019-06-10T14:24:49.889Z,1.83
2019-06-10T14:27:20.541Z,1.87
2019-06-10T14:29:44.768Z,1.80
2019-06-10T14:32:13.914Z,2.30
2019-06-10T14:34:41.954Z,1.50
2019-06-10T14:37:07.805Z,2.40
2019-06-10T14:39:34.005Z,1.93
2019-06-10T14:42:00.216Z,1.97
2019-06-10T14:44:26.855Z,2.30
2019-06-10T14:46:53.130Z,1.53
2019-06-10T14:49:19.447Z,2.30
2019-06-10T14:51:45.629Z,1.70
2019-06-10T14:54:16.038Z,2.20
2019-06-10T14:56:50.583Z,2.10
2019-06-10T14:59:09.568Z,1.70
2019-06-10T15:01:35.917Z,1.60
2019-06-10T15:04:03.044Z,2.00
2019-06-10T15:06:29.453Z,2.17
2019-06-10T15:08:55.658Z,2.33
2019-06-10T15:11:23.382Z,2.30
2019-06-10T15:13:52.308Z,1.77
2019-06-10T15:16:18.769Z,2.13
2019-06-10T15:18:45.428Z,2.47
2019-06-10T15:21:11.624Z,2.30
2019-06-10T15:23:37.955Z,2.33
2019-06-10T15:26:04.157Z,2.30
2019-06-10T15:28:30.376Z,2.43
2019-06-10T15:30:56.594Z,2.33
2019-06-10T15:33:23.483Z,2.50
2019-06-10T15:35:52.983Z,2.13
2019-06-10T15:38:19.900Z,1.90
2019-06-10T15:40:46.288Z,2.37
2019-06-10T15:43:13.826Z,2.10
2019-06-10T15:45:40.165Z,2.63
2019-06-10T15:48:06.553Z,2.10
2019-06-10T15:50:32.749Z,2.30
2019-06-10T15:52:59.252Z,2.80
2019-06-10T15:55:48.733Z,2.30
2019-06-10T15:57:54.397Z,2.37
2019-06-10T16:00:27.852Z,2.03
2019-06-10T16:02:50.118Z,2.37
2019-06-10T16:05:17.800Z,2.40
2019-06-10T16:07:44.865Z,2.47
2019-06-10T16:10:12.874Z,2.40
2019-06-10T16:12:43.628Z,2.50
2019-06-10T16:15:09.249Z,2.27
2019-06-10T16:17:35.682Z,2.33
2019-06-10T16:20:04.690Z,2.70
2019-06-10T16:22:31.193Z,2.40
2019-06-10T16:24:57.395Z,2.27
2019-06-10T16:27:43.238Z,2.20
2019-06-10T16:29:53.016Z,2.53
2019-06-10T16:32:21.063Z,2.43
2019-06-10T16:34:47.522Z,2.63
2019-06-10T16:37:15.061Z,2.30
2019-06-10T16:39:43.144Z,2.50
2019-06-10T16:42:10.133Z,2.10
2019-06-10T16:44:37.605Z,2.30
2019-06-10T16:47:03.807Z,1.90
2019-06-10T16:49:32.507Z,2.37
2019-06-10T16:51:58.158Z,2.60
2019-06-10T16:54:25.885Z,2.50
2019-06-10T16:56:52.758Z,2.07
2019-06-10T16:59:19.841Z,2.67
2019-06-10T17:01:46.174Z,2.13
2019-06-10T17:04:12.669Z,2.17
2019-06-10T17:06:39.293Z,2.20
2019-06-10T17:09:06.785Z,2.53
2019-06-10T17:11:34.181Z,2.77
2019-06-10T17:14:00.397Z,2.87
2019-06-10T17:16:28.110Z,2.70
2019-06-10T17:18:54.765Z,2.50
2019-06-10T17:21:24.644Z,2.70
2019-06-10T17:23:49.104Z,3.17
2019-06-10T17:26:15.890Z,3.07
2019-06-10T17:28:42.996Z,3.23
2019-06-10T17:31:09.431Z,2.90
2019-06-10T17:33:36.191Z,3.03
2019-06-10T17:36:03.543Z,3.33
2019-06-10T17:38:31.276Z,2.70
2019-06-10T17:40:57.929Z,3.37
2019-06-10T17:43:25.199Z,3.30
2019-06-10T17:45:52.800Z,2.83
2019-06-10T17:48:19.195Z,3.63
2019-06-10T17:50:45.715Z,3.47
2019-06-10T17:53:12.694Z,3.37
2019-06-10T17:55:39.297Z,2.70
2019-06-10T17:58:05.837Z,3.00
2019-06-10T18:00:35.837Z,3.07
2019-06-10T18:03:03.478Z,2.50
2019-06-10T18:05:29.315Z,2.30
2019-06-10T18:07:55.610Z,2.73
2019-06-10T18:10:22.766Z,2.83
2019-06-10T18:12:52.619Z,2.93
2019-06-10T18:15:18.417Z,2.70
2019-06-10T18:17:44.644Z,2.30
2019-06-10T18:20:13.364Z,2.77
2019-06-10T18:22:39.473Z,2.47
2019-06-10T18:25:06.306Z,2.73
2019-06-10T18:27:34.093Z,3.10
2019-06-10T18:30:02.488Z,2.23
2019-06-10T18:32:30.264Z,2.47
2019-06-10T18:34:58.103Z,2.27
2019-06-10T18:37:24.285Z,2.60
2019-06-10T18:39:52.215Z,2.33
2019-06-10T18:42:18.544Z,2.10
2019-06-10T18:44:45.045Z,2.67
2019-06-10T18:47:13.386Z,2.63
2019-06-10T18:49:41.114Z,2.47
2019-06-10T18:52:08.098Z,2.53
2019-06-10T18:54:36.023Z,2.43
2019-06-10T18:57:03.018Z,2.70
2019-06-10T18:59:32.136Z,2.40
2019-06-10T19:01:57.530Z,2.90
2019-06-10T19:04:23.737Z,2.70
2019-06-10T19:06:52.548Z,2.47
2019-06-10T19:09:18.385Z,2.47
2019-06-10T19:11:44.942Z,2.70
2019-06-10T19:14:12.795Z,3.57
2019-06-10T19:16:40.187Z,2.60
2019-06-10T19:19:06.776Z,2.60
2019-06-10T19:21:34.231Z,2.33
2019-06-10T19:24:03.070Z,2.70
2019-06-10T19:26:30.999Z,2.63
2019-06-10T19:28:57.581Z,3.20
2019-06-10T19:31:24.021Z,3.07
2019-06-10T19:33:51.967Z,2.63
2019-06-10T19:36:18.341Z,3.00
2019-06-10T19:38:44.593Z,2.30
2019-06-10T19:41:11.121Z,2.70
2019-06-10T19:43:39.171Z,3.13
2019-06-10T19:46:07.590Z,2.80
2019-06-10T19:48:38.380Z,2.70
2019-06-10T19:51:03.070Z,3.10
2019-06-10T19:53:29.533Z,3.13
2019-06-10T19:55:56.069Z,2.90
2019-06-10T19:58:23.288Z,3.03
2019-06-10T20:00:53.611Z,3.03
2019-06-10T20:03:18.169Z,3.40
2019-06-10T20:05:46.887Z,3.37
2019-06-10T20:08:13.264Z,3.30
2019-06-10T20:10:40.200Z,3.07
2019-06-10T20:13:06.792Z,3.47
2019-06-10T20:15:33.581Z,3.07
2019-06-10T20:18:00.111Z,3.20
2019-06-10T20:20:26.304Z,3.13
2019-06-10T20:22:57.129Z,3.10
2019-06-10T20:25:22.346Z,2.90
2019-06-10T20:27:49.125Z,2.70
2019-06-10T20:30:25.107Z,2.90
2019-06-10T20:32:51.426Z,3.10
2019-06-10T20:35:15.402Z,2.40
2019-06-10T20:37:44.255Z,2.63
2019-06-10T20:40:10.757Z,2.67
2019-06-10T20:42:38.163Z,2.60
2019-06-10T20:45:05.819Z,2.50
2019-06-10T20:47:33.319Z,2.70
2019-06-10T20:50:00.038Z,3.00
2019-06-10T20:52:26.335Z,2.80
2019-06-10T20:54:53.255Z,2.90
2019-06-10T20:57:19.817Z,2.60
2019-06-10T20:59:46.942Z,3.23
2019-06-10T21:02:15.458Z,3.17
2019-06-10T21:04:43.679Z,3.30
2019-06-10T21:07:12.650Z,3.33
2019-06-10T21:09:41.424Z,2.93
2019-06-10T21:12:08.564Z,3.00
2019-06-10T21:14:34.773Z,2.97
2019-06-10T21:17:02.979Z,2.97
2019-06-10T21:19:29.197Z,3.10
2019-06-10T21:21:55.415Z,3.17
2019-06-10T21:24:23.153Z,3.10
2019-06-10T21:26:50.709Z,3.37
2019-06-10T21:29:17.989Z,3.10
2019-06-10T21:31:45.805Z,3.33
2019-06-10T21:34:12.646Z,3.40
2019-06-10T21:36:38.917Z,3.40
2019-06-10T21:39:06.422Z,3.70
2019-06-10T21:41:32.609Z,3.40
2019-06-10T21:43:59.681Z,3.67
2019-06-10T21:46:26.124Z,3.10
2019-06-10T21:48:53.288Z,3.43
2019-06-10T21:51:22.758Z,3.63
2019-06-10T21:53:48.656Z,3.23
2019-06-10T21:56:14.930Z,3.77
2019-06-10T21:58:42.293Z,3.00
2019-06-10T22:01:14.166Z,3.17
2019-06-10T22:03:37.902Z,3.27
2019-06-10T22:06:04.119Z,4.17
2019-06-10T22:08:30.342Z,3.27
2019-06-10T22:10:56.780Z,3.20
2019-06-10T22:13:23.062Z,3.77
2019-06-10T22:15:51.044Z,3.57
2019-06-10T22:18:17.768Z,4.50
2019-06-10T22:20:44.860Z,4.20
2019-06-10T22:23:12.805Z,4.00
2019-06-10T22:25:39.672Z,4.03
2019-06-10T22:28:05.854Z,3.93
2019-06-10T22:30:32.324Z,4.23
2019-06-10T22:32:58.856Z,4.17
2019-06-10T22:35:25.168Z,4.20
2019-06-10T22:37:52.579Z,4.13
2019-06-10T22:40:19.476Z,4.50
2019-06-10T22:42:46.969Z,4.50
2019-06-10T22:45:14.320Z,4.40
2019-06-10T22:47:42.589Z,5.27
2019-06-10T22:50:08.889Z,5.30
2019-06-10T22:52:35.457Z,4.90
2019-06-10T22:55:07.784Z,5.30
2019-06-10T22:57:36.239Z,4.87
2019-06-10T23:00:07.725Z,5.47
2019-06-10T23:02:33.933Z,5.33
2019-06-10T23:05:05.030Z,5.80
2019-06-10T23:07:28.551Z,5.37
2019-06-10T23:09:56.361Z,4.97
2019-06-10T23:12:23.155Z,5.30
2019-06-10T23:14:50.732Z,5.23
2019-06-10T23:17:17.757Z,5.43
2019-06-10T23:19:43.949Z,5.40
2019-06-10T23:22:12.531Z,5.60
2019-06-10T23:24:38.496Z,5.33
2019-06-10T23:27:04.953Z,5.20
2019-06-10T23:29:32.222Z,5.87
2019-06-10T23:32:03.704Z,4.67
2019-06-10T23:34:27.120Z,5.93
2019-06-10T23:36:55.348Z,6.20
2019-06-10T23:39:22.645Z,6.03
2019-06-10T23:41:49.125Z,6.10
2019-06-10T23:44:15.333Z,5.83
2019-06-10T23:46:42.558Z,5.90
2019-06-10T23:49:09.093Z,5.53
2019-06-10T23:51:35.274Z,5.53
2019-06-10T23:54:05.547Z,5.53
2019-06-10T23:56:29.862Z,6.10
2019-06-10T23:58:57.496Z,5.37
